Time;durP1;ratioP1;P1;durP2;ratioP2;P2;SDS_P1;SDS_P2;PMS_P1;PMS_P2;Temp;Humidity;BMP_temperature;BMP_pressure;BME280_temperature;BME280_humidity;BME280_pressure;Samples;Min_cycle;Max_cycle;Signal;HPM_P1;HPM_P2
2024/02/16 00:01:08;;;;;;;22.60;11.30;;;;;;;-0.45;100.00;101962.68;106542;1254;59644;-79
2024/02/16 00:03:35;;;;;;;18.80;11.40;;;;;;;-0.45;100.00;101968.02;106625;1251;60108;-82
2024/02/16 00:06:03;;;;;;;18.90;11.20;;;;;;;-0.45;100.00;101964.76;106239;1255;72285;-83
2024/02/16 00:08:31;;;;;;;19.90;10.90;;;;;;;-0.46;100.00;101966.30;106362;1251;64920;-81
2024/02/16 00:10:58;;;;;;;19.00;10.10;;;;;;;-0.46;100.00;101962.17;106656;1253;72636;-80
2024/02/16 00:13:25;;;;;;;22.60;12.20;;;;;;;-0.45;100.00;101964.41;106391;1253;61109;-81
2024/02/16 00:15:52;;;;;;;17.90;9.70;;;;;;;-0.44;100.00;101960.65;106455;1254;60176;-80
2024/02/16 00:18:20;;;;;;;19.80;11.10;;;;;;;-0.45;100.00;101963.55;106437;1249;73115;-79
2024/02/16 00:20:47;;;;;;;24.30;14.40;;;;;;;-0.44;100.00;101964.59;106596;1253;63931;-79
2024/02/16 00:23:14;;;;;;;26.10;13.90;;;;;;;-0.41;100.00;101962.55;106699;1251;72620;-81
2024/02/16 00:25:41;;;;;;;29.70;14.70;;;;;;;-0.43;100.00;101961.50;106646;1253;61175;-80
2024/02/16 00:28:09;;;;;;;21.70;14.00;;;;;;;-0.41;100.00;101964.63;106433;1251;60142;-80
2024/02/16 00:30:36;;;;;;;32.00;15.30;;;;;;;-0.41;100.00;101962.55;106546;1253;72096;-78
2024/02/16 00:33:03;;;;;;;26.60;15.10;;;;;;;-0.39;100.00;101960.66;106293;1254;63765;-81
2024/02/16 00:35:33;;;;;;;25.00;14.90;;;;;;;-0.33;100.00;101966.38;106241;1251;72417;-80
2024/02/16 00:38:00;;;;;;;24.30;14.00;;;;;;;-0.29;100.00;101968.64;107533;1251;59655;-81
2024/02/16 00:40:28;;;;;;;24.70;14.90;;;;;;;-0.30;100.00;101972.23;108720;1253;59191;-81
2024/02/16 00:42:55;;;;;;;20.50;12.40;;;;;;;-0.34;100.00;101965.52;108222;1251;71714;-80
2024/02/16 00:45:22;;;;;;;18.90;11.50;;;;;;;-0.38;100.00;101959.48;109084;1251;64244;-79
2024/02/16 00:47:50;;;;;;;19.80;12.00;;;;;;;-0.39;100.00;101960.84;109504;1249;71457;-80
2024/02/16 00:50:18;;;;;;;24.70;13.40;;;;;;;-0.38;100.00;101958.10;109644;1250;59952;-80
2024/02/16 00:52:45;;;;;;;23.50;12.90;;;;;;;-0.37;100.00;101962.05;109717;1251;58939;-82
2024/02/16 00:55:17;;;;;;;22.80;13.50;;;;;;;-0.34;100.00;101964.66;109763;1250;71784;-82
2024/02/16 00:57:44;;;;;;;24.20;15.30;;;;;;;-0.31;100.00;101962.78;109656;1251;62634;-81
2024/02/16 01:00:12;;;;;;;28.90;16.80;;;;;;;-0.28;100.00;101968.83;109336;1250;71916;-81
2024/02/16 01:02:39;;;;;;;21.40;12.90;;;;;;;-0.26;100.00;101966.44;109298;1250;59769;-78
2024/02/16 01:05:06;;;;;;;19.50;12.70;;;;;;;-0.26;100.00;101969.35;108714;1251;59828;-80
2024/02/16 01:07:33;;;;;;;21.80;13.30;;;;;;;-0.24;100.00;101974.00;108810;1251;73104;-81
2024/02/16 01:10:03;;;;;;;21.60;12.20;;;;;;;-0.20;100.00;101976.09;108602;1253;62758;-80
2024/02/16 01:12:31;;;;;;;19.20;11.50;;;;;;;-0.16;100.00;101975.77;108675;1251;71374;-79
2024/02/16 01:14:58;;;;;;;23.00;10.60;;;;;;;-0.17;100.00;101973.19;108429;1253;61058;-79
2024/02/16 01:17:26;;;;;;;18.30;11.00;;;;;;;-0.18;100.00;101970.08;106761;1251;60356;-82
2024/02/16 01:19:53;;;;;;;15.60;10.50;;;;;;;-0.15;100.00;101974.23;106498;1251;72997;-81
2024/02/16 01:22:20;;;;;;;22.20;10.40;;;;;;;-0.11;100.00;101978.73;106445;1254;63929;-79
2024/02/16 01:24:47;;;;;;;20.10;11.20;;;;;;;-0.05;100.00;101981.86;106995;1251;72623;-81
2024/02/16 01:27:15;;;;;;;21.40;12.70;;;;;;;-0.02;100.00;101986.69;106729;1250;61042;-82
2024/02/16 01:29:43;;;;;;;19.50;11.20;;;;;;;-0.04;100.00;101984.79;106405;1251;59734;-82
2024/02/16 01:32:11;;;;;;;26.00;14.60;;;;;;;-0.07;100.00;101982.54;107914;1251;73098;-79
2024/02/16 01:34:39;;;;;;;23.00;15.50;;;;;;;-0.11;100.00;101987.84;109310;1251;62511;-80
2024/02/16 01:37:06;;;;;;;21.80;13.00;;;;;;;-0.10;100.00;101990.08;108122;1251;72758;-83
2024/02/16 01:39:32;;;;;;;21.50;11.30;;;;;;;-0.08;100.00;101988.04;106100;1251;60917;-81
2024/02/16 01:42:01;;;;;;;21.20;12.00;;;;;;;-0.08;100.00;101988.03;106090;1251;60402;-79
2024/02/16 01:44:28;;;;;;;16.00;9.50;;;;;;;-0.08;100.00;101992.17;106246;1251;71984;-79
2024/02/16 01:46:55;;;;;;;18.80;11.40;;;;;;;-0.08;100.00;101987.86;106206;1251;64027;-81
2024/02/16 01:49:22;;;;;;;15.70;10.50;;;;;;;-0.13;100.00;101994.53;106196;1251;71266;-80
2024/02/16 01:51:50;;;;;;;21.60;10.20;;;;;;;-0.17;100.00;101998.11;106532;1254;61448;-80
2024/02/16 01:54:17;;;;;;;19.00;11.80;;;;;;;-0.21;100.00;101998.27;106507;1254;60523;-81
2024/02/16 01:56:44;;;;;;;21.40;11.80;;;;;;;-0.23;100.00;102000.30;106834;1254;71978;-80
2024/02/16 01:59:12;;;;;;;19.00;11.70;;;;;;;-0.24;100.00;102003.05;106837;1251;62582;-80
2024/02/16 02:01:39;;;;;;;17.10;10.60;;;;;;;-0.24;100.00;102011.81;108184;1251;72681;-76
2024/02/16 02:04:06;;;;;;;20.20;11.30;;;;;;;-0.23;100.00;102009.42;109048;1252;60559;-80
2024/02/16 02:06:33;;;;;;;21.50;11.80;;;;;;;-0.21;100.00;102008.06;107889;1251;60577;-77
2024/02/16 02:09:01;;;;;;;17.60;11.40;;;;;;;-0.18;100.00;102007.90;106312;1254;73804;-83
2024/02/16 02:11:28;;;;;;;19.40;11.20;;;;;;;-0.16;100.00;102008.95;106515;1250;63815;-80
2024/02/16 02:13:55;;;;;;;19.70;12.90;;;;;;;-0.17;100.00;102013.92;106499;1251;72655;-79
2024/02/16 02:16:23;;;;;;;21.80;12.70;;;;;;;-0.21;100.00;102014.75;106863;1254;60481;-81
2024/02/16 02:18:49;;;;;;;22.80;13.30;;;;;;;-0.23;100.00;102014.22;106965;1251;60344;-80
2024/02/16 02:21:17;;;;;;;19.60;13.50;;;;;;;-0.27;100.00;102013.52;106303;1254;72609;-80
2024/02/16 02:23:45;;;;;;;24.40;12.70;;;;;;;-0.29;100.00;102010.76;106181;1253;63851;-80
2024/02/16 02:26:19;;;;;;;20.50;12.20;;;;;;;-0.25;100.00;102014.04;106171;1251;72713;-81
2024/02/16 02:28:46;;;;;;;22.10;13.50;;;;;;;-0.19;100.00;102020.27;106183;1254;61195;-80
2024/02/16 02:31:13;;;;;;;23.80;13.20;;;;;;;-0.16;100.00;102017.70;106424;1249;60124;-82
2024/02/16 02:33:40;;;;;;;19.20;12.50;;;;;;;-0.17;100.00;102021.98;106387;1251;73940;-81
2024/02/16 02:36:09;;;;;;;18.90;12.30;;;;;;;-0.19;100.00;102022.33;106305;1249;64078;-80
2024/02/16 02:38:36;;;;;;;27.30;15.00;;;;;;;-0.20;100.00;102024.22;106464;1250;72558;-80
2024/02/16 02:41:03;;;;;;;26.20;15.20;;;;;;;-0.25;100.00;102022.12;106916;1251;60539;-81
2024/02/16 02:43:35;;;;;;;25.50;12.80;;;;;;;-0.29;100.00;102026.04;106384;1253;60548;-80
2024/02/16 02:46:03;;;;;;;19.80;12.30;;;;;;;-0.31;100.00;102025.84;106804;1249;73917;-79
2024/02/16 02:48:30;;;;;;;28.90;15.30;;;;;;;-0.33;100.00;102028.08;107551;1251;62408;-80
2024/02/16 02:50:59;;;;;;;20.00;13.90;;;;;;;-0.34;100.00;102026.18;108237;1250;72672;-81
2024/02/16 02:53:28;;;;;;;31.60;14.20;;;;;;;-0.36;100.00;102023.75;109108;1250;62179;-81
2024/02/16 02:55:55;;;;;;;24.50;15.80;;;;;;;-0.35;100.00;102024.27;109288;1250;60351;-80
2024/02/16 02:58:22;;;;;;;25.00;15.00;;;;;;;-0.32;100.00;102027.56;109144;1249;72669;-80
2024/02/16 03:00:50;;;;;;;21.30;13.50;;;;;;;-0.30;100.00;102030.15;109330;1250;62584;-79
2024/02/16 03:03:17;;;;;;;29.90;14.50;;;;;;;-0.31;100.00;102030.14;109130;1250;71455;-79
2024/02/16 03:05:44;;;;;;;32.80;15.60;;;;;;;-0.27;100.00;102028.80;109427;1250;59885;-81
2024/02/16 03:08:11;;;;;;;28.00;13.60;;;;;;;-0.23;100.00;102029.02;109300;1250;58927;-79
2024/02/16 03:10:39;;;;;;;29.30;13.10;;;;;;;-0.23;100.00;102028.30;109087;1250;72646;-80
2024/02/16 03:13:08;;;;;;;25.90;12.80;;;;;;;-0.23;100.00;102032.27;109234;1250;62557;-80
2024/02/16 03:15:35;;;;;;;25.50;14.20;;;;;;;-0.24;100.00;102031.39;109383;1250;70433;-82
2024/02/16 03:18:08;;;;;;;40.30;22.30;;;;;;;-0.25;100.00;102036.20;108985;1256;60539;-80
2024/02/16 03:20:35;;;;;;;38.50;22.40;;;;;;;-0.26;100.00;102038.27;108210;1250;60331;-79
2024/02/16 03:23:03;;;;;;;30.90;19.00;;;;;;;-0.26;100.00;102038.27;107631;1250;73795;-81
2024/02/16 03:25:30;;;;;;;28.50;16.40;;;;;;;-0.24;100.00;102046.52;109406;1250;62615;-80
2024/02/16 03:27:57;;;;;;;18.70;11.70;;;;;;;-0.20;100.00;102049.48;109154;1251;71346;-81
2024/02/16 03:30:24;;;;;;;22.00;12.00;;;;;;;-0.18;100.00;102052.40;108354;1249;60456;-81
2024/02/16 03:32:52;;;;;;;19.20;11.90;;;;;;;-0.16;100.00;102054.31;107141;1250;60507;-82
2024/02/16 03:35:19;;;;;;;17.40;10.10;;;;;;;-0.12;100.00;102056.23;106669;1252;73835;-79
2024/02/16 03:37:46;;;;;;;18.00;9.50;;;;;;;-0.12;100.00;102055.03;107419;1253;63985;-81
2024/02/16 03:40:13;;;;;;;16.90;11.10;;;;;;;-0.12;100.00;102056.41;106846;1251;72627;-79
2024/02/16 03:42:43;;;;;;;21.90;10.50;;;;;;;-0.15;100.00;102060.86;106432;1251;60529;-80
2024/02/16 03:45:11;;;;;;;17.70;9.70;;;;;;;-0.20;100.00;102058.93;106291;1254;61528;-79
2024/02/16 03:47:41;;;;;;;18.30;10.20;;;;;;;-0.23;100.00;102058.21;106344;1251;73910;-79
2024/02/16 03:50:08;;;;;;;19.10;11.60;;;;;;;-0.22;100.00;102057.20;106664;1251;63982;-85
2024/02/16 03:52:36;;;;;;;21.60;10.70;;;;;;;-0.22;100.00;102057.20;106184;1251;71344;-82
2024/02/16 03:55:05;;;;;;;20.20;11.40;;;;;;;-0.26;100.00;102057.52;106263;1253;60434;-84
2024/02/16 03:57:32;;;;;;;20.40;12.20;;;;;;;-0.31;100.00;102058.50;106237;1253;60432;-82
2024/02/16 04:00:00;;;;;;;18.40;11.90;;;;;;;-0.35;100.00;102063.11;106156;1254;73976;-80
2024/02/16 04:02:27;;;;;;;21.80;12.30;;;;;;;-0.37;100.00;102066.35;106270;1253;62896;-80
2024/02/16 04:04:54;;;;;;;18.30;10.80;;;;;;;-0.41;100.00;102065.63;106255;1254;72764;-81
2024/02/16 04:07:21;;;;;;;17.50;11.00;;;;;;;-0.41;100.00;102070.27;106195;1253;60420;-82
2024/02/16 04:09:48;;;;;;;17.80;11.60;;;;;;;-0.37;100.00;102067.73;106159;1251;60433;-80
2024/02/16 04:12:16;;;;;;;18.30;12.00;;;;;;;-0.37;100.00;102066.52;106256;1250;72510;-81
2024/02/16 04:14:43;;;;;;;18.40;11.50;;;;;;;-0.36;100.00;102070.14;106448;1254;63726;-81
2024/02/16 04:17:11;;;;;;;16.10;9.80;;;;;;;-0.39;100.00;102067.71;107890;1250;72648;-81
2024/02/16 04:19:38;;;;;;;23.40;12.40;;;;;;;-0.41;100.00;102068.20;108922;1251;60535;-84
2024/02/16 04:22:05;;;;;;;20.10;12.00;;;;;;;-0.42;100.00;102071.64;106477;1251;60510;-81
2024/02/16 04:24:32;;;;;;;17.90;12.50;;;;;;;-0.44;100.00;102068.17;106104;1253;72567;-82
2024/02/16 04:26:59;;;;;;;24.80;13.50;;;;;;;-0.45;100.00;102071.61;106067;1253;63974;-80
2024/02/16 04:29:26;;;;;;;21.80;12.50;;;;;;;-0.46;100.00;102073.33;106235;1251;73411;-80
2024/02/16 04:31:52;;;;;;;23.90;13.10;;;;;;;-0.47;100.00;102072.29;106137;1251;61188;-80
2024/02/16 04:34:20;;;;;;;23.20;12.80;;;;;;;-0.45;100.00;102076.25;106147;1250;60568;-82
2024/02/16 04:36:47;;;;;;;29.00;16.30;;;;;;;-0.47;100.00;102072.95;106050;1254;73911;-83
2024/02/16 04:39:15;;;;;;;26.30;15.70;;;;;;;-0.52;100.00;102075.84;106129;1254;64006;-80
2024/02/16 04:41:42;;;;;;;21.80;14.30;;;;;;;-0.53;100.00;102084.59;106723;1251;72707;-81
2024/02/16 04:44:09;;;;;;;22.30;14.50;;;;;;;-0.57;100.00;102081.29;107402;1249;60543;-81
2024/02/16 04:46:36;;;;;;;26.00;15.40;;;;;;;-0.62;100.00;102087.95;106398;1253;60578;-81
2024/02/16 04:49:03;;;;;;;19.90;12.70;;;;;;;-0.67;100.00;102087.20;106331;1253;73809;-83
2024/02/16 04:51:32;;;;;;;25.60;13.60;;;;;;;-0.69;100.00;102092.85;106308;1253;62934;-82
2024/02/16 04:53:59;;;;;;;20.10;12.80;;;;;;;-0.73;100.00;102094.02;106209;1251;72702;-82
2024/02/16 04:56:26;;;;;;;19.10;12.30;;;;;;;-0.74;100.00;102098.11;106103;1251;60414;-84
2024/02/16 04:58:53;;;;;;;24.10;14.00;;;;;;;-0.72;100.00;102099.85;106214;1249;60552;-81
2024/02/16 05:01:20;;;;;;;24.30;13.90;;;;;;;-0.72;100.00;102105.86;106131;1251;72851;-82
2024/02/16 05:03:47;;;;;;;18.60;12.30;;;;;;;-0.71;100.00;102109.48;106134;1250;62507;-81
2024/02/16 05:06:15;;;;;;;25.50;14.50;;;;;;;-0.71;100.00;102112.91;106053;1251;72643;-81
2024/02/16 05:08:41;;;;;;;26.20;13.10;;;;;;;-0.75;100.00;102116.64;106164;1255;61150;-83
2024/02/16 05:11:09;;;;;;;17.40;11.00;;;;;;;-0.80;100.00;102121.58;106244;1251;60360;-82
2024/02/16 05:13:37;;;;;;;21.40;13.90;;;;;;;-0.85;100.00;102121.69;106277;1251;73960;-81
2024/02/16 05:16:11;;;;;;;19.90;11.90;;;;;;;-0.85;100.00;102128.23;106094;1254;63819;-82
2024/02/16 05:18:38;;;;;;;21.80;12.10;;;;;;;-0.82;100.00;102127.05;106149;1250;71600;-85
2024/02/16 05:21:05;;;;;;;17.50;11.70;;;;;;;-0.83;100.00;102130.45;106155;1251;60526;-82
2024/02/16 05:23:32;;;;;;;22.60;12.10;;;;;;;-0.87;100.00;102129.40;106225;1251;60513;-82
2024/02/16 05:25:59;;;;;;;22.30;11.40;;;;;;;-0.90;100.00;102133.14;106071;1252;73942;-81
2024/02/16 05:28:26;;;;;;;18.60;10.40;;;;;;;-0.91;100.00;102136.23;106124;1253;64759;-82
2024/02/16 05:30:54;;;;;;;20.80;11.80;;;;;;;-0.93;100.00;102139.98;106142;1251;72483;-83
2024/02/16 05:33:21;;;;;;;19.50;12.70;;;;;;;-0.92;100.00;102142.39;106179;1251;61008;-81
2024/02/16 05:35:54;;;;;;;20.70;12.30;;;;;;;-0.89;100.00;102149.10;106049;1253;60436;-83
2024/02/16 05:38:31;;;;;;;22.70;13.60;;;;;;;-0.91;100.00;102149.77;106032;1254;73919;-83
2024/02/16 05:40:58;;;;;;;29.20;13.40;;;;;;;-0.93;100.00;102148.56;106248;1253;63826;-84
2024/02/16 05:43:26;;;;;;;19.10;11.30;;;;;;;-0.92;100.00;102155.08;106086;1254;72656;-82
2024/02/16 05:45:55;;;;;;;21.60;10.70;;;;;;;-0.95;100.00;102150.92;106122;1253;60942;-80
2024/02/16 05:48:24;;;;;;;19.00;11.80;;;;;;;-0.99;100.00;102150.02;106050;1253;60463;-84
2024/02/16 05:50:51;;;;;;;21.10;11.80;;;;;;;-1.06;100.00;102148.90;106119;1251;73827;-83
2024/02/16 05:53:18;;;;;;;19.90;11.10;;;;;;;-1.12;100.00;102153.48;106021;1253;63892;-81
2024/02/16 05:55:47;;;;;;;18.10;11.50;;;;;;;-1.15;100.00;102153.24;106090;1251;72714;-83
2024/02/16 05:58:14;;;;;;;16.60;10.80;;;;;;;-1.14;100.00;102152.75;106059;1254;61050;-82
2024/02/16 06:00:42;;;;;;;22.70;12.20;;;;;;;-1.13;100.00;102151.23;106033;1250;60425;-83
2024/02/16 06:03:09;;;;;;;26.60;11.90;;;;;;;-1.07;100.00;102156.80;106030;1254;73733;-83
2024/02/16 06:05:40;;;;;;;23.90;11.20;;;;;;;-1.04;100.00;102158.88;105951;1254;63764;-80
2024/02/16 06:08:07;;;;;;;17.10;11.00;;;;;;;-1.00;100.00;102158.23;106123;1250;73070;-83
2024/02/16 06:10:34;;;;;;;20.50;11.50;;;;;;;-0.98;100.00;102160.14;106426;1251;61182;-81
2024/02/16 06:13:01;;;;;;;20.70;11.20;;;;;;;-1.00;100.00;102158.25;106465;1251;60437;-82
2024/02/16 06:15:29;;;;;;;16.30;10.90;;;;;;;-0.96;100.00;102166.36;107540;1253;73727;-82
2024/02/16 06:17:57;;;;;;;22.00;9.70;;;;;;;-0.92;100.00;102174.14;108901;1249;63806;-82
2024/02/16 06:20:24;;;;;;;17.50;10.90;;;;;;;-0.97;100.00;102164.45;108653;1250;71413;-81
2024/02/16 06:22:51;;;;;;;16.80;11.50;;;;;;;-1.05;100.00;102163.16;106725;1253;60478;-82
2024/02/16 06:25:18;;;;;;;19.10;10.60;;;;;;;-1.07;100.00;102165.02;106773;1250;59281;-83
2024/02/16 06:27:46;;;;;;;17.00;11.10;;;;;;;-1.05;100.00;102171.73;106920;1251;72541;-82
2024/02/16 06:30:14;;;;;;;18.60;10.50;;;;;;;-1.03;100.00;102167.82;106138;1253;63815;-81
2024/02/16 06:32:41;;;;;;;19.00;11.50;;;;;;;-0.98;100.00;102169.77;106304;1251;72760;-83
2024/02/16 06:35:08;;;;;;;17.30;11.60;;;;;;;-0.96;100.00;102162.41;106024;1254;61111;-81
2024/02/16 06:37:37;;;;;;;19.20;10.80;;;;;;;-0.96;100.00;102168.42;106087;1251;61079;-84
2024/02/16 06:40:10;;;;;;;18.30;11.00;;;;;;;-0.96;100.00;102170.14;106152;1252;73789;-82
2024/02/16 06:42:38;;;;;;;17.70;11.50;;;;;;;-0.99;100.00;102176.27;106269;1254;63803;-84
2024/02/16 06:45:06;;;;;;;18.80;12.00;;;;;;;-1.00;100.00;102179.02;106053;1251;72679;-83
2024/02/16 06:47:34;;;;;;;18.00;10.70;;;;;;;-0.98;100.00;102180.75;106098;1253;60971;-83
2024/02/16 06:50:02;;;;;;;15.90;10.10;;;;;;;-0.94;100.00;102183.73;106056;1252;60463;-83
2024/02/16 06:52:29;;;;;;;16.50;10.90;;;;;;;-0.94;100.00;102184.76;106108;1253;72806;-83
2024/02/16 06:54:57;;;;;;;15.50;10.80;;;;;;;-0.99;100.00;102184.34;106038;1250;63854;-83
2024/02/16 06:57:25;;;;;;;16.20;10.00;;;;;;;-0.98;100.00;102181.44;106090;1250;72717;-84
2024/02/16 06:59:53;;;;;;;17.20;11.00;;;;;;;-0.94;100.00;102185.45;106132;1251;60619;-82
2024/02/16 07:02:21;;;;;;;15.30;10.10;;;;;;;-0.88;100.00;102190.14;106222;1250;60443;-84
2024/02/16 07:04:48;;;;;;;15.20;9.60;;;;;;;-0.84;100.00;102186.27;106390;1251;73872;-84
2024/02/16 07:07:16;;;;;;;16.70;10.60;;;;;;;-0.82;100.00;102183.35;107109;1253;63583;-83
2024/02/16 07:09:44;;;;;;;18.40;10.40;;;;;;;-0.83;100.00;102177.33;106542;1250;72647;-84
2024/02/16 07:12:12;;;;;;;16.60;11.60;;;;;;;-0.79;100.00;102180.83;106130;1253;61855;-85
2024/02/16 07:14:40;;;;;;;15.70;10.50;;;;;;;-0.80;100.00;102190.43;106094;1250;60427;-83
2024/02/16 07:17:09;;;;;;;16.70;10.00;;;;;;;-0.85;100.00;102186.94;106104;1250;73848;-83
2024/02/16 07:19:37;;;;;;;17.70;9.80;;;;;;;-0.86;100.00;102189.50;106161;1253;63923;-83
2024/02/16 07:22:06;;;;;;;16.80;10.40;;;;;;;-0.86;100.00;102192.59;106146;1253;72525;-84
2024/02/16 07:24:34;;;;;;;17.70;10.90;;;;;;;-0.85;100.00;102191.91;106945;1251;60546;-83
2024/02/16 07:27:01;;;;;;;20.50;11.10;;;;;;;-0.87;100.00;102188.27;106120;1253;60422;-83
2024/02/16 07:29:29;;;;;;;18.60;10.80;;;;;;;-0.82;100.00;102187.14;106227;1250;73874;-83
2024/02/16 07:31:57;;;;;;;20.30;9.50;;;;;;;-0.76;100.00;102185.16;106113;1253;63794;-83
2024/02/16 07:34:24;;;;;;;16.10;10.60;;;;;;;-0.74;100.00;102182.95;106140;1250;73674;-83
2024/02/16 07:36:52;;;;;;;21.90;10.50;;;;;;;-0.71;100.00;102190.70;106111;1249;61395;-86
2024/02/16 07:39:22;;;;;;;17.40;9.90;;;;;;;-0.77;100.00;102186.52;106146;1250;60431;-81
2024/02/16 07:41:49;;;;;;;17.00;11.70;;;;;;;-0.81;100.00;102188.01;106148;1250;73336;-83
2024/02/16 07:44:16;;;;;;;18.00;9.30;;;;;;;-0.77;100.00;102192.87;106201;1253;63717;-82
2024/02/16 07:46:45;;;;;;;14.40;10.10;;;;;;;-0.79;100.00;102192.67;106157;1250;71813;-82
2024/02/16 07:49:14;;;;;;;18.80;9.10;;;;;;;-0.77;100.00;102189.94;106472;1250;60461;-83
2024/02/16 07:51:42;;;;;;;15.20;9.60;;;;;;;-0.73;100.00;102186.56;106430;1249;60478;-83
2024/02/16 07:54:09;;;;;;;13.70;9.70;;;;;;;-0.72;100.00;102194.47;106415;1250;73774;-82
2024/02/16 07:56:36;;;;;;;16.50;9.70;;;;;;;-0.75;100.00;102194.43;106376;1251;64864;-83
2024/02/16 07:59:03;;;;;;;12.20;9.00;;;;;;;-0.78;100.00;102197.32;106173;1251;72711;-83
2024/02/16 08:01:31;;;;;;;19.10;9.60;;;;;;;-0.80;100.00;102199.19;106231;1253;61130;-84
2024/02/16 08:03:59;;;;;;;18.00;9.40;;;;;;;-0.90;100.00;102199.23;106233;1251;60549;-83
2024/02/16 08:06:30;;;;;;;17.20;10.50;;;;;;;-0.99;100.00;102197.39;106113;1251;72700;-84
2024/02/16 08:09:01;;;;;;;18.80;10.10;;;;;;;-1.00;100.00;102206.14;105959;1254;64910;-83
2024/02/16 08:11:28;;;;;;;13.30;8.70;;;;;;;-0.92;100.00;102204.86;106186;1251;72842;-83
2024/02/16 08:13:55;;;;;;;18.20;10.50;;;;;;;-0.84;100.00;102206.01;106257;1252;60549;-82
2024/02/16 08:16:22;;;;;;;20.90;11.40;;;;;;;-0.85;100.00;102200.50;106448;1251;60547;-83
2024/02/16 08:18:49;;;;;;;20.80;9.90;;;;;;;-0.78;100.00;102201.45;106371;1249;72945;-84
2024/02/16 08:21:17;;;;;;;15.20;9.10;;;;;;;-0.64;100.00;102200.74;106184;1251;63886;-81
2024/02/16 08:23:43;;;;;;;18.90;9.60;;;;;;;-0.48;100.00;102196.98;106402;1251;70513;-83
2024/02/16 08:26:10;;;;;;;18.80;10.60;;;;;;;-0.30;100.00;102202.16;106501;1253;60548;-84
2024/02/16 08:28:39;;;;;;;19.70;10.60;;;;;;;-0.16;100.00;102204.70;106420;1252;60920;-82
2024/02/16 08:31:06;;;;;;;14.30;9.80;;;;;;;-0.12;100.00;102205.09;106147;1253;73842;-82
2024/02/16 08:33:36;;;;;;;17.20;11.10;;;;;;;-0.07;100.00;102207.20;106529;1251;65069;-83
2024/02/16 08:36:05;;;;;;;12.10;8.30;;;;;;;-0.02;100.00;102206.05;106198;1251;72639;-84
2024/02/16 08:38:33;;;;;;;14.70;8.80;;;;;;;-0.01;100.00;102213.29;106113;1254;60469;-83
2024/02/16 08:41:00;;;;;;;10.70;7.90;;;;;;;-0.01;100.00;102214.84;106261;1251;60322;-83
2024/02/16 08:43:27;;;;;;;16.70;9.50;;;;;;;-0.02;100.00;102215.52;106287;1251;73747;-83
2024/02/16 08:45:56;;;;;;;20.40;10.30;;;;;;;-0.07;100.00;102209.27;106099;1250;63660;-81
2024/02/16 08:48:24;;;;;;;14.00;9.00;;;;;;;-0.12;100.00;102210.08;106158;1251;72339;-82
2024/02/16 08:50:51;;;;;;;16.90;10.00;;;;;;;-0.09;100.00;102215.62;106217;1251;61104;-83
2024/02/16 08:53:18;;;;;;;15.00;10.40;;;;;;;-0.02;100.00;102213.09;106075;1251;60602;-83
2024/02/16 08:55:46;;;;;;;19.20;10.60;;;;;;;0.06;100.00;102213.16;106139;1251;73757;-82
2024/02/16 08:58:13;;;;;;;20.70;11.90;;;;;;;0.14;100.00;102217.73;106103;1254;64005;-83
2024/02/16 09:00:40;;;;;;;19.20;11.40;;;;;;;0.26;100.00;102217.66;106116;1253;73871;-83
2024/02/16 09:03:08;;;;;;;18.50;11.00;;;;;;;0.38;100.00;102214.13;106115;1254;60742;-82
2024/02/16 09:05:36;;;;;;;17.70;10.40;;;;;;;0.49;100.00;102217.14;106022;1253;61959;-84
2024/02/16 09:08:05;;;;;;;19.80;12.00;;;;;;;0.57;100.00;102218.05;106059;1251;73329;-83
2024/02/16 09:10:33;;;;;;;24.40;11.40;;;;;;;0.61;100.00;102219.29;106073;1253;62752;-83
2024/02/16 09:13:04;;;;;;;20.40;11.70;;;;;;;0.62;100.00;102218.09;106023;1251;72431;-83
2024/02/16 09:15:31;;;;;;;15.80;10.70;;;;;;;0.61;100.00;102216.02;106076;1253;60571;-83
2024/02/16 09:17:57;;;;;;;22.90;11.00;;;;;;;0.63;100.00;102215.70;106140;1250;60424;-84
2024/02/16 09:20:24;;;;;;;16.50;10.60;;;;;;;0.65;100.00;102212.61;106112;1252;73898;-82
2024/02/16 09:22:51;;;;;;;19.20;10.50;;;;;;;0.69;100.00;102211.77;106138;1252;64882;-82
2024/02/16 09:25:18;;;;;;;20.30;10.00;;;;;;;0.71;100.00;102212.48;106031;1254;72297;-82
2024/02/16 09:27:46;;;;;;;19.10;11.60;;;;;;;0.79;100.00;102209.61;106250;1253;61113;-82
2024/02/16 09:30:14;;;;;;;17.10;10.30;;;;;;;0.78;100.00;102203.91;106094;1249;61465;-82
2024/02/16 09:32:42;;;;;;;21.00;11.60;;;;;;;0.74;100.00;102202.86;106106;1251;73118;-82
2024/02/16 09:35:09;;;;;;;14.50;9.40;;;;;;;0.76;100.00;102205.11;106427;1253;64197;-82
2024/02/16 09:37:40;;;;;;;16.80;10.20;;;;;;;0.80;100.00;102210.48;106312;1252;72195;-83
2024/02/16 09:40:10;;;;;;;15.80;10.10;;;;;;;0.79;100.00;102206.67;106842;1251;61242;-82
2024/02/16 09:42:37;;;;;;;15.60;9.20;;;;;;;0.70;100.00;102204.90;107913;1250;60422;-81
2024/02/16 09:45:07;;;;;;;16.90;11.10;;;;;;;0.60;100.00;102201.21;108692;1250;73739;-83
2024/02/16 09:47:34;;;;;;;22.90;11.00;;;;;;;0.62;100.00;102200.55;106944;1253;64074;-84
2024/02/16 09:50:02;;;;;;;16.80;9.50;;;;;;;0.66;100.00;102205.90;106185;1251;70736;-82
2024/02/16 09:52:31;;;;;;;14.70;10.30;;;;;;;0.64;100.00;102199.86;106176;1251;61328;-82
2024/02/16 09:54:58;;;;;;;18.80;8.80;;;;;;;0.62;100.00;102201.41;105899;1254;213696;-81
2024/02/16 09:59:00;;;;;;;16.70;8.50;;;;;;;0.68;100.00;102195.23;103050;1286;601247;-82
2024/02/16 10:01:31;;;;;;;17.20;8.90;;;;;;;0.69;100.00;102193.02;104997;1267;59318;-83
2024/02/16 10:04:07;;;;;;;22.30;10.30;;;;;;;0.73;100.00;102192.87;104924;1271;59378;-83
2024/02/16 10:06:46;;;;;;;18.00;10.50;;;;;;;0.77;100.00;102192.55;104910;1272;71026;-84
2024/02/16 10:09:32;;;;;;;17.60;8.60;;;;;;;0.84;100.00;102192.59;104915;1272;64117;-82
2024/02/16 10:12:00;;;;;;;18.80;10.30;;;;;;;0.93;100.00;102191.43;104758;1266;239769;-83
2024/02/16 10:14:30;;;;;;;13.70;9.60;;;;;;;0.94;100.00;102185.76;105046;1265;59295;-82
2024/02/16 10:17:02;;;;;;;21.60;9.50;;;;;;;1.05;100.00;102189.26;104987;1263;60834;-83
2024/02/16 10:19:39;;;;;;;15.40;9.30;;;;;;;1.18;100.00;102193.80;105054;1263;72611;-83
2024/02/16 10:22:10;;;;;;;19.50;10.80;;;;;;;1.28;100.00;102192.29;105104;1263;64866;-83
2024/02/16 10:24:39;;;;;;;18.00;11.20;;;;;;;1.34;100.00;102192.82;105366;1270;71247;-82
2024/02/16 10:27:18;;;;;;;18.10;10.90;;;;;;;1.43;100.00;102193.70;106103;1268;59849;-83
2024/02/16 10:29:50;;;;;;;17.00;9.20;;;;;;;1.49;100.00;102190.80;105915;1270;59734;-80
2024/02/16 10:32:18;;;;;;;13.90;8.80;;;;;;;1.55;100.00;102187.02;106822;1263;74057;-81
2024/02/16 10:34:46;;;;;;;16.90;8.50;;;;;;;1.59;100.00;102190.30;106957;1263;62619;-79
2024/02/16 10:37:15;;;;;;;20.20;10.50;;;;;;;1.60;100.00;102187.89;106387;1260;71246;-83
2024/02/16 10:39:42;;;;;;;15.50;9.80;;;;;;;1.65;100.00;102184.64;105420;1260;59788;-81
2024/02/16 10:42:10;;;;;;;14.70;9.90;;;;;;;1.77;100.00;102186.55;105362;1264;60226;-84
2024/02/16 10:44:38;;;;;;;22.60;11.40;;;;;;;1.95;100.00;102189.51;105232;1260;72882;-83
2024/02/16 10:47:06;;;;;;;20.90;12.00;;;;;;;2.06;100.00;102189.00;105373;1260;62967;-83
2024/02/16 10:49:33;;;;;;;20.90;12.00;;;;;;;2.13;100.00;102183.83;105384;1260;70776;-82
2024/02/16 10:52:01;;;;;;;20.30;11.10;;;;;;;2.16;100.00;102184.88;105221;1265;61997;-82
2024/02/16 10:54:30;;;;;;;14.70;10.10;;;;;;;2.18;100.00;102185.91;105316;1260;61157;-83
2024/02/16 10:56:59;;;;;;;16.00;10.40;;;;;;;2.19;100.00;102186.41;105219;1265;75415;-83
2024/02/16 10:59:28;;;;;;;14.40;9.40;;;;;;;2.20;100.00;102186.27;105316;1260;62535;-83
2024/02/16 11:02:00;;;;;;;22.10;9.90;;;;;;;2.15;100.00;102181.59;105206;1260;71964;-83